Flight Track Log - Related Links

Times and Time Zones

All times are in EDT time to prevent confusion due to time zone crossing. See the RPA3253 flight status page for this flight to view local times or setup timezone preferences in your user account.

Time Position Orientation Groundspeed Altitude Reporting Facility
EDT Latitude Longitude Course Direction KTS MPH feet Rate Location/Type
Thu 11:47:17 PM 35.2261 -80.9292 246° West 157 181 1,400  Level Atlanta Center
Thu 11:48:42 PM 35.2894 -80.8786 33° Northeast 239 275 3,900 2,204 Climbing Atlanta Center
Thu 11:49:00 PM 35.2667 -81.2007 270° West  Level FlightAware Approximate
Thu 11:49:44 PM 35.2894 -80.9522 270° West 273 314 6,800  Level Atlanta Center
Thu 11:50:00 PM 35.1747 -81.2561 199° South  Level FlightAware Approximate
Thu 11:50:44 PM 35.2478 -81.0428 241° Southwest 295 339 9,800  Level Atlanta Center
Thu 11:51:00 PM 35.0780 -81.3022 251° West  Level FlightAware Approximate
Thu 11:51:44 PM 35.2061 -81.1333 241° Southwest 306 352 11,700  Level Atlanta Center
Thu 11:52:00 PM 35.0396 -81.4287 246° West  Level FlightAware Approximate
Thu 11:52:44 PM 35.1625 -81.2289 241° Southwest 321 369 13,800  Level Atlanta Center
Thu 11:53:44 PM 35.1167 -81.3344 242° Southwest 338 389 15,800 1,950 Climbing Atlanta Center
Thu 11:54:44 PM 35.0669 -81.4403 240° Southwest 361 415 17,700 1,950 Climbing Atlanta Center
Thu 11:55:44 PM 35.0169 -81.5508 241° Southwest 367 422 19,700 1,900 Climbing Atlanta Center
Thu 11:56:44 PM 34.9736 -81.6714 246° West 379 436 21,500 1,650 Climbing Atlanta Center
Thu 11:57:44 PM 34.9400 -81.7786 249° West 386 444 23,000 1,450 Climbing Atlanta Center
Thu 11:58:44 PM 34.8858 -81.8942 240° Southwest 386 444 24,400 1,450 Climbing Atlanta Center
Thu 11:59:44 PM 34.8128 -82.0147 234° Southwest 406 467 25,900 1,350 Climbing Atlanta Center
Fri 12:00:44 AM 34.7478 -82.1328 236° Southwest 417 480 27,100 1,200 Climbing Atlanta Center
Fri 12:01:44 AM 34.6806 -82.2478 235° Southwest 422 486 28,300 1,050 Climbing Atlanta Center
Fri 12:02:44 AM 34.6114 -82.3731 236° Southwest 430 495 29,200 1,150 Climbing Atlanta Center
Fri 12:03:44 AM 34.5422 -82.4906 234° Southwest 436 502 30,600 2,400 Climbing Atlanta Center
Fri 12:04:44 AM 34.4747 -82.6100 236° Southwest 436 502 34,000 1,200 Climbing Atlanta Center
Fri 12:05:44 AM 34.4069 -82.7219 234° Southwest 436 502 33,000  Descending Atlanta Center
Fri 12:06:44 AM 34.3394 -82.8364 234° Southwest 431 496 34,000 500 Climbing Atlanta Center
Fri 12:07:44 AM 34.2736 -82.9528 236° Southwest 426 490 34,000  Level Atlanta Center
Fri 12:08:44 AM 34.2100 -83.0617 235° Southwest 432 497 34,000  Level Atlanta Center
Fri 12:09:44 AM 34.1419 -83.1803 235° Southwest 437 503 34,000  Level Atlanta Center
Fri 12:10:44 AM 34.0717 -83.2964 234° Southwest 437 503 34,000  Level Atlanta Center
Fri 12:11:44 AM 34.0036 -83.4175 236° Southwest 437 503 34,000  Level Atlanta Center
Fri 12:12:44 AM 33.9331 -83.5331 234° Southwest 431 496 34,000  Level Atlanta Center
Fri 12:13:44 AM 33.8625 -83.6511 234° Southwest 436 502 34,000  Level Atlanta Center
Fri 12:14:44 AM 33.8108 -83.7964 247° West 430 495 34,000  Level Atlanta Center
Fri 12:15:44 AM 33.7711 -83.9314 251° West 430 495 34,000  Level Atlanta Center
Fri 12:16:44 AM 33.7336 -84.0664 252° West 430 495 34,000  Level Atlanta Center
Fri 12:17:44 AM 33.6961 -84.2011 252° West 425 489 34,000  Level Atlanta Center
Fri 12:18:44 AM 33.6603 -84.3158 249° West 425 489 34,000  Level Atlanta Center
Fri 12:19:44 AM 33.6244 -84.4431 251° West 418 481 34,000  Level Atlanta Center
Fri 12:20:44 AM 33.6072 -84.5875 262° West 406 467 34,000  Level Atlanta Center
Fri 12:21:44 AM 33.5878 -84.7097 259° West 414 476 34,000  Level Atlanta Center
Fri 12:22:44 AM 33.5661 -84.8467 259° West 420 483 34,000  Level Atlanta Center
Fri 12:23:44 AM 33.5464 -84.9883 261° West 428 493 34,000  Level Atlanta Center
Fri 12:24:44 AM 33.5244 -85.1303 260° West 428 493 34,000  Level Atlanta Center
Fri 12:25:44 AM 33.5019 -85.2844 260° West 428 493 34,000  Level Atlanta Center
Fri 12:26:44 AM 33.4817 -85.4186 260° West 423 487 34,000  Level Atlanta Center
Fri 12:27:44 AM 33.4614 -85.5553 260° West 418 481 34,000  Level Atlanta Center
Fri 12:28:44 AM 33.4389 -85.6917 259° West 418 481 34,000  Level Atlanta Center
Fri 12:29:44 AM 33.4181 -85.8233 259° West 418 481 34,000  Level Atlanta Center
Fri 12:30:44 AM 33.3975 -85.9572 260° West 418 481 34,000  Level Atlanta Center
Fri 12:31:44 AM 33.3719 -86.1008 258° West 425 489 34,000  Level Atlanta Center
Fri 12:32:44 AM 33.3511 -86.2322 259° West 425 489 34,000  Level Atlanta Center
Fri 12:33:44 AM 33.3297 -86.3636 259° West 419 482 34,000  Level Atlanta Center
Fri 12:34:44 AM 33.3067 -86.4847 257° West 419 482 34,000  Level Atlanta Center
Fri 12:35:44 AM 33.2850 -86.6281 260° West 408 470 34,000  Level Atlanta Center
Fri 12:36:44 AM 33.2608 -86.7714 259° West 421 484 34,000  Level Atlanta Center
Fri 12:37:44 AM 33.2411 -86.9050 260° West 421 484 34,000  Level Atlanta Center
Fri 12:38:44 AM 33.2192 -87.0408 259° West 421 484 34,000  Level Atlanta Center
Fri 12:39:44 AM 33.1994 -87.1594 259° West 416 479 34,000  Level Atlanta Center
Fri 12:40:44 AM 33.1794 -87.2950 260° West 416 479 34,000  Level Atlanta Center
Fri 12:42:20 AM 33.1486 -87.5114 260° West 401 461 34,000  Level Memphis Center
Fri 12:43:20 AM 33.1311 -87.6558 262° West 411 473 34,000  Level Memphis Center
Fri 12:44:20 AM 33.1067 -87.7928 258° West 424 488 34,000  Level Memphis Center
Fri 12:45:20 AM 33.0822 -87.9275 258° West 424 488 34,000  Level Memphis Center
Fri 12:46:20 AM 33.0600 -88.0644 259° West 424 488 34,000  Level Memphis Center
Fri 12:47:20 AM 33.0331 -88.2039 257° West 429 494 34,000  Level Memphis Center
Fri 12:48:20 AM 33.0019 -88.3383 255° West 429 494 34,000  Level Memphis Center
Fri 12:49:20 AM 32.9708 -88.4753 255° West 429 494 34,000  Level Memphis Center
Fri 12:50:20 AM 32.9392 -88.6072 254° West 429 494 34,000  Level Memphis Center
Fri 12:51:20 AM 32.8975 -88.7564 252° West 429 494 34,000  Level Memphis Center
Fri 12:52:20 AM 32.8553 -88.8858 249° West 429 494 34,000  Level Memphis Center
Fri 12:53:20 AM 32.8108 -89.0150 248° West 429 494 34,000  Level Memphis Center
Fri 12:54:20 AM 32.7600 -89.1444 245° Southwest 434 499 34,000  Level Memphis Center
Fri 12:55:20 AM 32.6964 -89.2636 238° Southwest 434 499 34,000  Level Memphis Center
Fri 12:56:20 AM 32.6306 -89.3806 236° Southwest 434 499 34,000  Level Memphis Center
Fri 12:57:20 AM 32.5456 -89.4775 224° Southwest 422 486 34,000  Level Memphis Center
Fri 12:58:20 AM 32.4522 -89.5647 218° Southwest 428 493 34,000  Level Memphis Center
Fri 12:59:20 AM 32.3589 -89.6539 219° Southwest 433 498 34,000  Level Memphis Center
Fri 01:00:20 AM 32.2400 -89.6892 194° South 427 491 34,000  Level Memphis Center
Fri 01:01:20 AM 32.1211 -89.7219 193° South 433 498 34,000 -50 Level Memphis Center
Fri 01:02:20 AM 32.0003 -89.7522 192° South 439 505 33,900 -500 Descending Memphis Center
Fri 01:03:20 AM 31.8772 -89.7850 193° South 449 517 33,000 -919 Descending Memphis Center
Fri 01:04:11 AM 31.7892 -89.8078 192° South 451 519 32,200 -1,446 Descending Houston Center
Fri 01:05:12 AM 31.6622 -89.8369 191° South 460 529 30,300 -1,983 Descending Houston Center
Fri 01:06:12 AM 31.5356 -89.8686 192° South 466 536 28,200 -1,190 Descending Houston Center
Fri 01:07:13 AM 31.4133 -89.8989 192° South 454 522 27,900 -1,289 Descending Houston Center
Fri 01:08:13 AM 31.2944 -89.9278 192° South 443 510 25,600 -2,281 Descending Houston Center
Fri 01:09:14 AM 31.1786 -89.9561 192° South 431 496 23,300 -2,479 Descending Houston Center
Fri 01:10:14 AM 31.0422 -89.9892 192° South 418 481 20,600 -2,462 Descending Houston Center
Fri 01:10:32 AM 31.0128 -89.9983 195° South 407 468 20,100 -1,855 Descending Houston Center
Fri 01:11:09 AM 30.9506 -90.0133 192° South 393 452 18,900 -2,103 Descending Houston Center
Fri 01:12:09 AM 30.8469 -90.0369 191° South 377 434 16,700 -2,083 Descending Houston Center
Fri 01:13:10 AM 30.7367 -90.0489 185° South 370 426 14,700 -1,934 Descending Houston Center
Fri 01:14:10 AM 30.6383 -90.0508 181° South 355 409 12,800 -1,835 Descending Houston Center
Fri 01:15:11 AM 30.5472 -90.0764 194° South 332 382 11,000 -1,770 Descending Houston Center
Fri 01:16:12 AM 30.4625 -90.1017 194° South 311 358 9,200 -1,636 Descending Houston Center
Fri 01:17:12 AM 30.3839 -90.1267 195° South 292 336 7,700 -1,537 Descending Houston Center
Fri 01:18:13 AM 30.3053 -90.1517 195° South 290 334 6,100 -1,488 Descending Houston Center
Fri 01:19:13 AM 30.2306 -90.1739 194° South 271 312 4,700 -1,289 Descending Houston Center
Fri 01:20:14 AM 30.1706 -90.1931 195° South 216 249 3,500 -1,180 Descending Houston Center
Fri 01:21:15 AM 30.1147 -90.2100 195° South 189 217 2,300 -1,041 Descending Houston Center
Fri 01:22:15 AM 30.0672 -90.2261 196° South 167 192 1,400 -810 Descending Houston Center
Fri 01:23:21 AM 30.0339 -90.2369 196° South 166 191 600 -524 Descending Houston Center
Fri 01:24:21 AM 29.9936 -90.2486 194° South 152 175 300 -300 Descending Houston Center
Fri 01:26:00 AM 29.9833 -90.2500 190° South  Level FlightAware Approximate
Fri 01:33:00 AM 29.9934 -90.2580 190° South  Level Estimated
Fri 01:34:00 AM 29.9934 -90.2580 190° South  Level Estimated

Login

Don't have an account? Register now (free) for customized features, flight alerts, and more!